createdAt,value
2016-03-28T12:34:37.508Z,50.73
2016-03-28T12:35:40.745Z,50.83
2016-03-28T12:36:40.904Z,50.45
2016-03-28T12:37:41.000Z,49.59
2016-03-28T12:38:40.456Z,49.59
2016-03-28T12:39:40.661Z,48.63
2016-03-28T12:40:40.774Z,49.87
2016-03-28T12:41:40.774Z,49.49
2016-03-28T12:42:40.872Z,49.78
2016-03-28T12:43:41.081Z,50.07
2016-03-28T12:44:40.991Z,49.02
2016-03-28T12:45:40.543Z,48.16
2016-03-28T12:46:37.871Z,48.07
2016-03-28T12:47:54.595Z,48.83
2016-03-28T12:49:34.671Z,48.07
2016-03-28T12:51:13.433Z,47.11
2016-03-28T12:52:55.214Z,48.73
2016-03-28T12:54:39.402Z,48.54
2016-03-28T12:56:20.857Z,48.07
2016-03-28T12:57:59.672Z,51.12
2016-03-28T12:59:35.362Z,51.21
2016-03-28T13:01:07.086Z,49.4
2016-03-28T13:02:51.029Z,51.12
2016-03-28T13:04:32.640Z,49.87
2016-03-28T13:06:08.692Z,49.59
2016-03-28T13:07:46.416Z,49.97
2016-03-28T13:09:22.183Z,48.28
2016-03-28T13:10:52.439Z,49.62
2016-03-28T13:12:24.644Z,49.62
2016-03-28T13:13:04.960Z,48.28
2016-03-28T13:14:04.979Z,46.94
2016-03-28T13:15:06.059Z,47.23
2016-03-28T13:16:05.327Z,47.23
2016-03-28T13:17:04.674Z,46.84
2016-03-28T13:18:05.598Z,47.32
2016-03-28T13:19:05.851Z,49.42
2016-03-28T13:20:04.932Z,49.23
2016-03-28T13:21:05.857Z,49.26
2016-03-28T13:22:06.296Z,48.11
2016-03-28T13:23:05.346Z,49.42
2016-03-28T13:24:05.661Z,49.71
2016-03-28T13:25:04.867Z,49.33
2016-03-28T13:26:04.870Z,48.08
2016-03-28T13:27:05.075Z,49.52
2016-03-28T13:28:05.062Z,50.67
2016-03-28T13:29:05.675Z,48.75
2016-03-28T13:30:05.489Z,47.03
2016-03-28T13:31:05.664Z,48.47
2016-03-28T13:32:05.652Z,46.94
2016-03-28T13:33:05.841Z,48.08
2016-03-28T13:34:06.203Z,47.99
2016-03-28T13:35:05.878Z,47.23
2016-03-28T13:36:06.194Z,49.33
2016-03-28T13:37:05.821Z,47.99
2016-03-28T13:38:04.808Z,49.42
2016-03-28T13:40:05.876Z,49.71
2016-03-28T13:41:05.644Z,47.61
2016-03-28T13:42:05.757Z,46.27
2016-03-28T13:43:05.868Z,46.75
2016-03-28T13:44:05.637Z,47.52
2016-03-28T13:45:05.015Z,48.08
2016-03-28T13:46:06.455Z,47.89
2016-03-28T13:47:05.942Z,46.18
2016-03-28T13:48:05.070Z,46.27
2016-03-28T13:49:05.634Z,47.32
2016-03-28T13:50:06.356Z,47.03
2016-03-28T13:51:05.812Z,48.08
2016-03-28T13:52:05.798Z,47.42
2016-03-28T13:53:06.037Z,46.18
2016-03-28T13:55:05.026Z,44.56
2016-03-28T13:56:05.498Z,46.08
2016-03-28T13:57:04.969Z,45.03
2016-03-28T13:58:06.065Z,45.7
2016-03-28T13:59:05.536Z,45.22
2016-03-28T14:00:06.247Z,45.79
2016-03-28T14:01:06.124Z,45.68
2016-03-28T14:02:06.158Z,44.25
2016-03-28T14:03:06.052Z,46.06
2016-03-28T14:04:06.023Z,47.02
2016-03-28T14:05:05.994Z,47.02
2016-03-28T14:06:05.904Z,47.2
2016-03-28T14:07:05.251Z,47.97
2016-03-28T14:08:04.989Z,47.11
2016-03-28T14:09:06.444Z,48.44
2016-03-28T14:10:05.978Z,47.78
2016-03-28T14:11:05.168Z,47.94
2016-03-28T14:12:06.202Z,47.28
2016-03-28T14:13:05.830Z,47.18
2016-03-28T14:14:05.770Z,48.23
2016-03-28T14:15:04.835Z,49.95
2016-03-28T14:16:04.853Z,49.85
2016-03-28T14:17:05.528Z,50.99
2016-03-28T14:18:04.671Z,51.18
2016-03-28T14:19:06.377Z,51.18
2016-03-28T14:20:05.927Z,50.99
2016-03-28T14:21:21.649Z,50.59
2016-03-28T14:22:47.685Z,52.52
2016-03-28T14:24:15.157Z,51.95
2016-03-28T14:25:45.943Z,50.97
2016-03-28T14:27:12.337Z,49.95
2016-03-28T14:28:39.121Z,49.95
2016-03-28T14:30:06.391Z,50.13
2016-03-28T14:31:33.301Z,49.95
2016-03-28T14:32:39.115Z,51.18
2016-03-28T14:33:41.274Z,51.97
2016-03-28T14:34:39.731Z,50.63
2016-03-28T14:35:39.545Z,48.73
2016-03-28T14:36:39.673Z,48.44
2016-03-28T14:37:39.270Z,47.13
2016-03-28T14:38:40.210Z,47.32
2016-03-28T14:39:38.603Z,47.32
2016-03-28T14:40:39.293Z,46.47
2016-03-28T14:41:39.781Z,46.47
2016-03-28T14:42:39.798Z,46.18
2016-03-28T14:43:40.036Z,47.03
2016-03-28T14:44:38.523Z,46.56
2016-03-28T14:45:39.681Z,46.56
2016-03-28T14:46:39.903Z,46.94
2016-03-28T14:47:38.578Z,46.75
2016-03-28T14:48:39.314Z,48.08
2016-03-28T14:49:38.474Z,48.08
2016-03-28T14:50:38.570Z,48.57
2016-03-28T14:51:39.494Z,49.33
2016-03-28T14:52:38.483Z,49.35
2016-03-28T14:53:39.766Z,49.83
2016-03-28T14:54:38.753Z,48.59
2016-03-28T14:55:38.474Z,47.16
2016-03-28T14:56:39.243Z,48.21
2016-03-28T14:57:39.074Z,50.69
2016-03-28T14:58:39.796Z,49.54
2016-03-28T14:59:39.079Z,49.83
2016-03-28T15:00:39.754Z,50.88
2016-03-28T15:01:39.819Z,50.02
2016-03-28T15:02:38.868Z,48.11
2016-03-28T15:03:38.512Z,46.77
2016-03-28T15:04:39.826Z,47.44
2016-03-28T15:05:39.173Z,47.25
2016-03-28T15:06:39.973Z,47.16
2016-03-28T15:08:58.856Z,47.94
2016-03-28T15:09:49.858Z,48.52
2016-03-28T15:10:49.548Z,47.85
2016-03-28T15:11:50.270Z,48.02
2016-03-28T15:12:50.131Z,47.56
2016-03-28T15:13:50.306Z,46.68
2016-03-28T15:14:50.700Z,46.32
2016-03-28T15:15:50.156Z,46.61
2016-03-28T15:16:49.955Z,46.77
2016-03-28T15:17:49.958Z,47.06
2016-03-28T15:18:50.070Z,47.34
2016-03-28T15:19:50.541Z,48.11
2016-03-28T15:20:50.716Z,47.44
2016-03-28T15:22:50.377Z,47.54
2016-03-28T15:23:50.193Z,47.44
2016-03-28T15:24:50.493Z,48.08
2016-03-28T15:25:50.026Z,47.99
2016-03-28T15:26:50.107Z,48.57
2016-03-28T15:27:50.438Z,48.85
2016-03-28T15:28:50.175Z,48.08
2016-03-28T15:29:49.709Z,49.11
2016-03-28T15:30:49.852Z,50.73
2016-03-28T15:31:49.699Z,50.73
2016-03-28T15:32:50.217Z,50.92
2016-03-28T15:33:49.829Z,51.37
2016-03-28T15:34:50.566Z,53
2016-03-28T15:35:49.709Z,52.8
2016-03-28T15:36:50.665Z,52.52
2016-03-28T15:37:49.699Z,53.56
2016-03-28T15:38:50.014Z,53.95
2016-03-28T15:40:11.595Z,54.88
2016-03-28T15:41:55.459Z,56.59
2016-03-28T15:43:41.962Z,56.02
2016-03-28T15:45:32.125Z,56.68
2016-03-28T15:47:20.833Z,57.54
2016-03-28T15:49:03.697Z,58.97
2016-03-28T15:50:51.125Z,61.35
2016-03-28T15:52:40.549Z,60.46
2016-03-28T15:54:28.617Z,63.13
2016-03-28T15:56:18.044Z,63.13
2016-03-28T15:58:08.221Z,64.08
2016-03-28T15:59:57.821Z,65.03
2016-03-28T16:01:39.074Z,65.61
2016-03-28T16:03:29.345Z,63.99
2016-03-28T16:05:15.928Z,62.27
2016-03-28T16:07:05.465Z,61.29
2016-03-28T16:08:54.282Z,61.42
2016-03-28T16:09:41.532Z,61.61
2016-03-28T16:10:41.379Z,61.86
2016-03-28T16:11:42.178Z,61.9
2016-03-28T16:12:42.212Z,62.43
2016-03-28T16:13:42.793Z,61.38
2016-03-28T16:14:41.358Z,60.63
2016-03-28T16:15:44.705Z,60.63
2016-03-28T16:16:44.801Z,60.91
2016-03-28T16:17:45.008Z,60.34
2016-03-28T16:18:44.260Z,60.53
2016-03-28T16:19:44.950Z,61.48
2016-03-28T16:20:44.875Z,61
2016-03-28T16:21:44.127Z,59.86
2016-03-28T16:22:45.364Z,60.15
2016-03-28T16:23:44.977Z,60.05
2016-03-28T16:24:44.260Z,60.34
2016-03-28T16:25:45.091Z,60.5
2016-03-28T16:26:44.782Z,60.02
2016-03-28T16:27:44.455Z,60.5
2016-03-28T16:28:46.474Z,59.36
2016-03-28T16:29:44.274Z,60.12
2016-03-28T16:31:44.873Z,59.74
2016-03-28T16:32:44.735Z,58.4
2016-03-28T16:33:44.332Z,59.1
2016-03-28T16:34:44.474Z,59.86
2016-03-28T16:35:45.274Z,58.72
2016-03-28T16:36:41.637Z,57.1
2016-03-28T16:37:44.420Z,58.06
2016-03-28T16:38:44.657Z,57.2
2016-03-28T16:39:44.832Z,56.63
2016-03-28T16:40:44.976Z,57.01
2016-03-28T16:41:44.712Z,56.34
2016-03-28T16:42:44.903Z,56.53
2016-03-28T16:43:44.045Z,56.92
2016-03-28T16:44:44.501Z,57.2
2016-03-28T16:45:43.864Z,58.81
2016-03-28T16:46:44.712Z,57.67
2016-03-28T16:47:44.152Z,58.53
2016-03-28T16:48:44.560Z,58.34
2016-03-28T16:49:44.751Z,58.72
2016-03-28T16:50:44.753Z,58.44
2016-03-28T16:51:44.568Z,58.06
2016-03-28T16:52:45.461Z,56.92
2016-03-28T16:53:44.401Z,56.24
2016-03-28T16:54:44.404Z,55.1
2016-03-28T16:55:44.361Z,55.68
2016-03-28T16:56:44.192Z,55.9
2016-03-28T16:57:44.929Z,56.09
2016-03-28T16:58:44.275Z,55.13
2016-03-28T16:59:45.981Z,54.85
2016-03-28T17:00:43.953Z,55.04
2016-03-28T17:01:44.439Z,55.1
2016-03-28T17:02:44.473Z,56.44
2016-03-28T17:03:44.553Z,56.92
2016-03-28T17:04:44.181Z,56.63
2016-03-28T17:05:44.090Z,57.58
2016-03-28T17:06:44.000Z,57.93
2016-03-28T17:08:00.239Z,57.55
2016-03-28T17:09:52.229Z,58.31
2016-03-28T17:11:49.985Z,58.69
2016-03-28T17:13:27.627Z,59.14
2016-03-28T17:15:11.133Z,59.52
2016-03-28T17:16:55.061Z,60.18
2016-03-28T17:18:47.423Z,60.85
2016-03-28T17:20:40.413Z,61.32
2016-03-28T17:22:45.684Z,61.13
2016-03-28T17:24:41.094Z,62.27
2016-03-28T17:27:12.399Z,63.6
2016-03-28T17:29:22.842Z,63.79
2016-03-28T17:31:12.144Z,64.18
2016-03-28T17:33:16.196Z,64.18
2016-03-28T17:35:20.655Z,63.89
2016-03-28T17:37:12.129Z,64.37
2016-03-28T17:37:54.038Z,63.6
2016-03-28T17:38:54.479Z,64.08
2016-03-28T17:39:55.559Z,64.37
2016-03-28T17:40:55.812Z,64.08
2016-03-28T17:41:55.315Z,64.56
2016-03-28T17:42:54.832Z,65.03
2016-03-28T17:43:55.288Z,64.65
2016-03-28T17:44:55.682Z,64.65
2016-03-28T17:45:55.248Z,65.22
2016-03-28T17:46:55.703Z,65.13
2016-03-28T17:47:56.971Z,64.56
2016-03-28T17:48:54.145Z,65.13
2016-03-28T17:49:55.711Z,65.03
2016-03-28T17:50:55.839Z,65.89
2016-03-28T17:51:56.013Z,66.36
2016-03-28T17:52:55.452Z,65.67
2016-03-28T17:53:57.439Z,65.67
2016-03-28T17:55:57.711Z,65.7
2016-03-28T17:56:57.761Z,66.08
2016-03-28T17:57:57.935Z,65.6
2016-03-28T17:58:57.891Z,65.13
2016-03-28T17:59:57.456Z,65.51
2016-03-28T18:00:57.100Z,65.03
2016-03-28T18:01:57.977Z,65.41
2016-03-28T18:02:57.371Z,65.6
2016-03-28T18:03:57.046Z,64.94
2016-03-28T18:04:57.501Z,65.32
2016-03-28T18:05:57.801Z,65.8
2016-03-28T18:06:57.646Z,65.99
2016-03-28T18:07:57.602Z,66.27
2016-03-28T18:08:54.355Z,66.46
2016-03-28T18:09:57.264Z,67.19
2016-03-28T18:10:59.048Z,67.57
2016-03-28T18:11:57.488Z,67.57
2016-03-28T18:12:58.788Z,67.66
2016-03-28T18:13:54.072Z,67.57
2016-03-28T18:14:54.325Z,67.76
2016-03-28T18:15:57.390Z,67.94
2016-03-28T18:16:54.001Z,68.04
2016-03-28T18:17:54.254Z,68.23
2016-03-28T18:18:54.242Z,68.33
2016-03-28T18:19:54.307Z,69.09
2016-03-28T18:20:54.184Z,68.61
2016-03-28T18:21:57.515Z,69.09
2016-03-28T18:22:54.237Z,68.9
2016-03-28T18:23:53.787Z,68.33
2016-03-28T18:24:54.430Z,68.36
2016-03-28T18:25:54.401Z,68.27
2016-03-28T18:26:54.217Z,68.27
2016-03-28T18:27:57.735Z,68.65
2016-03-28T18:28:53.941Z,68.55
2016-03-28T18:29:53.647Z,68.46
2016-03-28T18:30:57.555Z,68.27
2016-03-28T18:31:57.152Z,68.46
2016-03-28T18:32:54.233Z,68.36
2016-03-28T18:33:54.141Z,68.55
2016-03-28T18:34:54.144Z,68.07
2016-03-28T18:35:57.475Z,68.27
2016-03-28T18:36:53.882Z,68.27
2016-03-28T18:37:53.821Z,68.46
2016-03-28T18:38:56.123Z,68.27
2016-03-28T18:39:57.252Z,68.13
2016-03-28T18:40:55.314Z,69.18
2016-03-28T18:41:56.007Z,68.71
2016-03-28T18:42:56.728Z,69.09
2016-03-28T18:43:57.168Z,69.27
2016-03-28T18:44:57.452Z,68.42
2016-03-28T18:45:57.361Z,68.9
2016-03-28T18:46:56.848Z,69.46
2016-03-28T18:47:56.695Z,68.9
2016-03-28T18:48:57.338Z,69.27
2016-03-28T18:49:56.998Z,68.8
2016-03-28T18:50:57.234Z,68.8
2016-03-28T18:51:56.721Z,69.09
2016-03-28T18:52:53.503Z,69.37
2016-03-28T18:53:57.289Z,69.46
2016-03-28T18:54:57.589Z,69.46
2016-03-28T18:55:56.981Z,68.9
2016-03-28T18:56:56.497Z,69.37
2016-03-28T18:57:57.112Z,69.6
2016-03-28T18:58:57.240Z,68.93
2016-03-28T18:59:56.742Z,69.69
2016-03-28T19:00:56.477Z,69.5
2016-03-28T19:01:57.216Z,69.12
2016-03-28T19:02:57.189Z,69.6
2016-03-28T19:03:57.285Z,68.93
2016-03-28T19:04:57.209Z,69.21
2016-03-28T19:05:56.474Z,68.07
2016-03-28T19:06:57.293Z,68.46
2016-03-28T19:07:56.900Z,69.12
2016-03-28T19:08:56.904Z,68.74
2016-03-28T19:09:56.326Z,69.69
2016-03-28T19:10:57.112Z,69.02
2016-03-28T19:11:57.037Z,69.5
2016-03-28T19:12:56.883Z,69.41
2016-03-28T19:13:56.492Z,69.41
2016-03-28T19:14:56.935Z,69.12
2016-03-28T19:15:56.938Z,69.12
2016-03-28T19:16:56.955Z,68.55
2016-03-28T19:17:56.580Z,69.02
2016-03-28T19:18:56.977Z,68.74
2016-03-28T19:19:56.868Z,68.74
2016-03-28T19:20:56.871Z,68.93
2016-03-28T19:21:56.858Z,69.5
2016-03-28T19:22:56.673Z,70.07
2016-03-28T19:23:56.785Z,69.98
2016-03-28T19:24:56.538Z,70.74
2016-03-28T19:25:56.946Z,72.16
2016-03-28T19:26:57.059Z,72.45
2016-03-28T19:27:56.405Z,73.21
2016-03-28T19:28:56.376Z,74.63
2016-03-28T19:29:56.474Z,76.25
2016-03-28T19:30:56.523Z,76.63
2016-03-28T19:31:56.634Z,77.68
2016-03-28T19:32:56.201Z,77.17
2016-03-28T19:33:56.468Z,78.59
2016-03-28T19:34:58.068Z,79.79
2016-03-28T19:35:56.380Z,79.69
2016-03-28T19:36:56.523Z,80.83
2016-03-28T19:37:57.167Z,82.16
2016-03-28T19:38:56.420Z,82.54
2016-03-28T19:39:56.359Z,81.84
2016-03-28T19:40:56.392Z,83.54
2016-03-28T19:41:56.521Z,83.54
2016-03-28T19:42:56.148Z,84.87
2016-03-28T19:43:56.229Z,85.53
2016-03-28T19:44:56.139Z,85.91
2016-03-28T19:45:56.594Z,86.25
2016-03-28T19:46:56.175Z,85.97
2016-03-28T19:47:56.428Z,86.16
2016-03-28T19:48:56.321Z,86.35
2016-03-28T19:49:56.480Z,87.2
2016-03-28T19:50:56.186Z,86.91
2016-03-28T19:51:56.407Z,86.91
2016-03-28T19:52:52.941Z,87.3
2016-03-28T19:53:56.694Z,87.49
2016-03-28T19:54:56.666Z,87.68
2016-03-28T19:55:56.574Z,88.06
2016-03-28T19:56:56.468Z,88.39
2016-03-28T19:57:56.174Z,88.34
2016-03-28T19:58:56.551Z,88.72
2016-03-28T19:59:55.991Z,88.91
2016-03-28T20:00:56.446Z,88.48
2016-03-28T20:01:53.074Z,88.77
2016-03-28T20:02:56.437Z,88.96
2016-03-28T20:03:52.799Z,89.34
2016-03-28T20:04:56.098Z,89.15
2016-03-28T20:05:56.617Z,89.15
2016-03-28T20:06:56.417Z,89.25
2016-03-28T20:07:56.090Z,90
2016-03-28T20:08:52.781Z,89.81
2016-03-28T20:09:53.315Z,89.81
2016-03-28T20:10:56.177Z,89.62
2016-03-28T20:11:52.742Z,89.91
2016-03-28T20:12:53.370Z,89.81
2016-03-28T20:13:52.936Z,90.1
2016-03-28T20:14:52.720Z,90
2016-03-28T20:15:52.894Z,90.1
2016-03-28T20:16:57.130Z,90.38
2016-03-28T20:18:56.558Z,90.38
2016-03-28T20:19:52.576Z,90.29
2016-03-28T20:20:52.641Z,90.48
2016-03-28T20:21:52.628Z,90.48
2016-03-28T20:22:52.600Z,90.29
2016-03-28T20:23:52.603Z,90.48
2016-03-28T20:24:56.121Z,90.1
2016-03-28T20:25:52.560Z,90.38
2016-03-28T20:26:56.283Z,90.19
2016-03-28T20:27:52.769Z,90.48
2016-03-28T20:28:55.976Z,90.38
2016-03-28T20:29:52.509Z,90.19
2016-03-28T20:30:52.512Z,90
2016-03-28T20:31:52.546Z,90.38
2016-03-28T20:32:55.658Z,90.1
2016-03-28T20:33:52.707Z,89.91
2016-03-28T20:35:52.745Z,90.19
2016-03-28T20:36:57.356Z,89.91
2016-03-28T20:37:52.718Z,90.29
2016-03-28T20:38:52.673Z,90.67
2016-03-28T20:39:52.896Z,90.19
2016-03-28T20:41:55.932Z,90.48
2016-03-28T20:42:55.795Z,90.19
2016-03-28T20:43:56.453Z,90.48
2016-03-28T20:45:55.600Z,90
2016-03-28T20:46:58.227Z,89.81
2016-03-28T20:47:55.697Z,89.25
2016-03-28T20:48:56.044Z,89.25
2016-03-28T20:49:56.672Z,89.06
2016-03-28T20:50:55.769Z,89.81
2016-03-28T20:51:55.553Z,89.62
2016-03-28T20:52:55.540Z,88.96
2016-03-28T20:53:55.418Z,89.25
2016-03-28T20:54:56.171Z,89.06
2016-03-28T20:55:56.141Z,88.87
2016-03-28T20:56:55.863Z,89.53
2016-03-28T20:57:55.679Z,89.34
2016-03-28T20:58:56.134Z,88.96
2016-03-28T20:59:55.763Z,89.25
2016-03-28T21:00:55.608Z,89.53
2016-03-28T21:01:55.595Z,90.19
2016-03-28T21:02:55.833Z,89.62
2016-03-28T21:03:55.476Z,89.91
2016-03-28T21:04:55.619Z,89.72
2016-03-28T21:05:55.840Z,89.34
2016-03-28T21:06:55.734Z,89.53
2016-03-28T21:07:55.923Z,89.25
2016-03-28T21:08:55.709Z,89.62
2016-03-28T21:09:55.226Z,89.06
2016-03-28T21:10:55.400Z,89.34
2016-03-28T21:11:55.200Z,88.96
2016-03-28T21:12:55.328Z,89.15
2016-03-28T21:13:55.737Z,89.53
2016-03-28T21:14:55.350Z,89.34
2016-03-28T21:15:55.508Z,89.25
2016-03-28T21:16:55.308Z,89.06
2016-03-28T21:17:55.576Z,89.62
2016-03-28T21:18:55.735Z,89.53
2016-03-28T21:19:55.659Z,89.25
2016-03-28T21:20:55.068Z,89.11
2016-03-28T21:21:55.540Z,88.96
2016-03-28T21:22:55.371Z,88.96
2016-03-28T21:23:55.654Z,89.2
2016-03-28T21:24:52.469Z,89.48
2016-03-28T21:25:52.160Z,88.96
2016-03-28T21:27:13.431Z,89.01
2016-03-28T21:28:58.480Z,88.82
2016-03-28T21:30:17.768Z,88.63
2016-03-28T21:31:17.629Z,88.73
2016-03-28T21:32:18.272Z,88.54
2016-03-28T21:33:17.462Z,88.82
2016-03-28T21:34:17.840Z,88.16
2016-03-28T21:35:18.499Z,88.35
2016-03-28T21:36:18.534Z,88.16
2016-03-28T21:37:17.801Z,87.3
2016-03-28T21:38:19.695Z,87.12
2016-03-28T21:39:18.776Z,87.25
2016-03-28T21:40:19.231Z,87.54
2016-03-28T21:41:17.812Z,87.92
2016-03-28T21:42:17.470Z,87.54
2016-03-28T21:43:18.365Z,87.49
2016-03-28T21:44:18.961Z,87.49
2016-03-28T21:45:17.292Z,87.49
2016-03-28T21:46:17.514Z,87.77
2016-03-28T21:47:19.250Z,88.06
2016-03-28T21:49:18.914Z,88.35
2016-03-28T21:50:17.408Z,88.06
2016-03-28T21:51:17.354Z,87.97
2016-03-28T21:52:17.348Z,88.35
2016-03-28T21:54:17.407Z,88.25
2016-03-28T21:55:19.124Z,87.87
2016-03-28T21:56:17.983Z,87.49
2016-03-28T21:59:17.922Z,88.16
2016-03-28T22:00:17.923Z,87.87
2016-03-28T22:01:17.285Z,88.16
2016-03-28T22:02:18.240Z,87.97
2016-03-28T22:04:17.276Z,88.73
2016-03-28T22:05:18.981Z,88.54
2016-03-28T22:06:17.216Z,88.54
2016-03-28T22:07:19.313Z,88.63
2016-03-28T22:08:18.285Z,88.92
2016-03-28T22:09:17.631Z,88.92
2016-03-28T22:10:20.414Z,89.39
2016-03-28T22:11:20.791Z,89.58
2016-03-28T22:12:20.480Z,89.11
2016-03-28T22:13:20.672Z,88.92
2016-03-28T22:14:19.893Z,89.11
2016-03-28T22:15:20.927Z,89.2
2016-03-28T22:16:20.570Z,89.2
2016-03-28T22:17:20.713Z,89.2
2016-03-28T22:18:20.262Z,89.2
2016-03-28T22:19:20.453Z,89.29
2016-03-28T22:20:20.126Z,89.39
2016-03-28T22:21:20.443Z,89.2
2016-03-28T22:22:21.101Z,89.29
2016-03-28T22:23:19.979Z,89.29
2016-03-28T22:24:20.076Z,89.48
2016-03-28T22:25:20.406Z,89.39
2016-03-28T22:26:20.878Z,89.48
2016-03-28T22:27:20.506Z,89.2
2016-03-28T22:28:20.102Z,89.01
2016-03-28T22:29:20.948Z,89.2
2016-03-28T22:30:19.936Z,89.2
2016-03-28T22:31:20.142Z,89.58
2016-03-28T22:32:20.878Z,89.2
2016-03-28T22:33:20.412Z,89.29
2016-03-28T22:34:19.853Z,89.58
2016-03-28T22:35:20.980Z,89.11
2016-03-28T22:36:19.874Z,89.11
2016-03-28T22:37:20.252Z,88.96
2016-03-28T22:38:16.629Z,90.1
2016-03-28T22:39:20.507Z,89.72
2016-03-28T22:40:20.463Z,89.25
2016-03-28T22:41:19.855Z,88.96
2016-03-28T22:42:19.577Z,89.25
2016-03-28T22:43:19.814Z,88.48
2016-03-28T22:44:19.316Z,88.87
2016-03-28T22:45:20.116Z,89.06
2016-03-28T22:46:20.635Z,88.96
2016-03-28T22:47:20.449Z,88.68
2016-03-28T22:48:20.499Z,89.06
2016-03-28T22:49:20.361Z,88.48
2016-03-28T22:50:19.521Z,88.77
2016-03-28T22:51:20.164Z,88.29
2016-03-28T22:52:20.026Z,88.48
2016-03-28T22:53:20.185Z,88.29
2016-03-28T22:54:19.703Z,88.58
2016-03-28T22:55:20.471Z,88.29
2016-03-28T22:56:19.646Z,88.29
2016-03-28T22:57:20.117Z,88.1
2016-03-28T22:58:20.323Z,88.39
2016-03-28T23:00:20.532Z,88.2
2016-03-28T23:01:20.066Z,88.2
2016-03-28T23:02:19.756Z,88.48
2016-03-28T23:03:19.728Z,88.2
2016-03-28T23:05:20.264Z,88.29
2016-03-28T23:06:19.939Z,88.82
2016-03-28T23:07:19.769Z,88.92
2016-03-28T23:08:16.678Z,89.15
2016-03-28T23:09:16.525Z,89.15
2016-03-28T23:11:16.686Z,89.29
2016-03-28T23:12:19.439Z,89.58
2016-03-28T23:14:17.882Z,89.96
2016-03-28T23:15:18.978Z,90.15
2016-03-28T23:16:19.935Z,89.77
2016-03-28T23:17:16.843Z,89.67
2016-03-28T23:18:20.204Z,90
2016-03-28T23:19:16.348Z,89.81
2016-03-28T23:22:16.779Z,89.86
2016-03-28T23:23:16.531Z,90
2016-03-28T23:25:16.051Z,88.96
2016-03-28T23:26:19.524Z,89.96
2016-03-28T23:27:20.229Z,89.86
2016-03-28T23:28:16.028Z,89.96
2016-03-28T23:29:16.517Z,89.62
2016-03-28T23:30:19.409Z,89.62
2016-03-28T23:31:15.990Z,89.53
2016-03-28T23:32:16.212Z,89.53
2016-03-28T23:33:24.386Z,90.1
2016-03-28T23:34:19.873Z,90
2016-03-28T23:35:16.235Z,90.15
2016-03-28T23:36:19.395Z,89.72
2016-03-28T23:37:16.225Z,89.72
2016-03-28T23:38:16.180Z,89.62
2016-03-28T23:39:18.168Z,89.91
2016-03-28T23:40:19.686Z,89.06
2016-03-28T23:41:16.173Z,89.25
2016-03-28T23:42:17.098Z,89.15
2016-03-28T23:43:19.100Z,89.62
2016-03-28T23:44:19.103Z,89.43
2016-03-28T23:45:19.652Z,89.15
2016-03-28T23:46:18.858Z,89.43
2016-03-28T23:47:18.455Z,89.25
2016-03-28T23:48:19.035Z,89.25
2016-03-28T23:49:19.601Z,89.43
2016-03-28T23:50:19.276Z,89.53
2016-03-28T23:51:19.340Z,89.43
2016-03-28T23:52:19.546Z,89.53
2016-03-28T23:53:19.190Z,89.25
2016-03-28T23:54:19.209Z,89.53
2016-03-28T23:55:19.648Z,88.87
2016-03-28T23:56:19.589Z,88.96
2016-03-28T23:57:27.528Z,88.87
2016-03-28T23:58:15.687Z,88.96
2016-03-28T23:59:19.222Z,89.15
